Time;durP1;ratioP1;P1;durP2;ratioP2;P2;SDS_P1;SDS_P2;PMS_P1;PMS_P2;Temp;Humidity;BMP_temperature;BMP_pressure;BME280_temperature;BME280_humidity;BME280_pressure;Samples;Min_cycle;Max_cycle;Signal;HPM_P1;HPM_P2
2023/01/30 00:01:43;;;;;;;;;;;;;;;;;;4916339;28;20008;-72
2023/01/30 00:04:11;;;;;;;;;;;;;;;;;;4912360;28;20317;-74
2023/01/30 00:06:37;;;;;;;;;;;;;;;;;;4913853;28;20673;-73
2023/01/30 00:09:03;;;;;;;;;;;;;;;;;;4914416;28;19947;-72
2023/01/30 00:11:30;;;;;;;;;;;;;;;;;;4936229;28;20270;-73
2023/01/30 00:13:57;;;;;;;;;;;;;;;;;;4933420;28;19914;-72
2023/01/30 00:16:22;;;;;;;;;;;;;;;;;;4921937;28;20338;-72
2023/01/30 00:18:49;;;;;;;;;;;;;;;;;;4931967;28;20460;-73
2023/01/30 00:21:15;;;;;;;;;;;;;;;;;;4934998;28;19918;-72
2023/01/30 00:23:41;;;;;;;;;;;;;;;;;;4916512;28;19924;-72
2023/01/30 00:26:07;;;;;;;;;;;;;;;;;;4929747;28;20398;-72
2023/01/30 00:28:33;;;;;;;;;;;;;;;;;;4918675;28;20162;-72
2023/01/30 00:30:59;;;;;;;;;;;;;;;;;;4931735;28;19922;-72
2023/01/30 00:33:25;;;;;;;;;;;;;;;;;;4933168;28;19918;-72
2023/01/30 00:35:51;;;;;;;;;;;;;;;;;;4942237;28;20332;-72
2023/01/30 00:38:17;;;;;;;;;;;;;;;;;;4931585;28;20147;-72
2023/01/30 00:40:43;;;;;;;;;;;;;;;;;;4932673;28;19921;-71
2023/01/30 00:48:38;;;;;;;;;;;;;;;;;;4934537;28;19918;-72
2023/01/30 00:51:04;;;;;;;;;;;;;;;;;;4931983;28;19921;-72
2023/01/30 00:53:30;;;;;;;;;;;;;;;;;;4918652;28;20294;-72
2023/01/30 00:55:56;;;;;;;;;;;;;;;;;;4929067;28;19918;-71
2023/01/30 00:58:22;;;;;;;;;;;;;;;;;;4934536;28;19944;-72
2023/01/30 01:00:48;;;;;;;;;;;;;;;;;;4931141;28;20408;-72
2023/01/30 01:03:14;;;;;;;;;;;;;;;;;;4932792;28;19988;-72
2023/01/30 01:05:40;;;;;;;;;;;;;;;;;;4934744;28;19921;-72
2023/01/30 01:08:06;;;;;;;;;;;;;;;;;;4933240;28;21593;-72
2023/01/30 01:10:32;;;;;;;;;;;;;;;;;;4932523;28;19918;-71
2023/01/30 01:12:58;;;;;;;;;;;;;;;;;;4930972;28;19921;-72
2023/01/30 01:15:24;;;;;;;;;;;;;;;;;;4919555;28;19925;-73
2023/01/30 01:17:50;;;;;;;;;;;;;;;;;;4931685;28;20389;-72
2023/01/30 01:20:16;;;;;;;;;;;;;;;;;;4933258;28;19983;-73
2023/01/30 01:22:42;;;;;;;;;;;;;;;;;;4933662;28;19929;-71
2023/01/30 01:25:09;;;;;;;;;;;;;;;;;;4929108;28;20727;-72
2023/01/30 01:27:35;;;;;;;;;;;;;;;;;;4931368;28;19914;-72
2023/01/30 01:30:01;;;;;;;;;;;;;;;;;;4915243;28;20450;-72
2023/01/30 01:32:27;;;;;;;;;;;;;;;;;;4918879;28;20087;-72
2023/01/30 01:34:53;;;;;;;;;;;;;;;;;;4934626;28;19949;-72
2023/01/30 01:37:19;;;;;;;;;;;;;;;;;;4933063;28;20397;-72
2023/01/30 01:42:29;;;;;;;;;;;;;;;;;;4931887;28;20027;-72
2023/01/30 01:44:55;;;;;;;;;;;;;;;;;;4932177;28;20001;-73
2023/01/30 01:47:21;;;;;;;;;;;;;;;;;;4935973;28;19914;-72
2023/01/30 01:49:47;;;;;;;;;;;;;;;;;;4917059;28;20534;-72
2023/01/30 01:52:13;;;;;;;;;;;;;;;;;;4935880;28;19922;-72
2023/01/30 01:54:39;;;;;;;;;;;;;;;;;;4916856;28;19914;-74
2023/01/30 01:57:05;;;;;;;;;;;;;;;;;;4915815;28;19962;-73
2023/01/30 01:59:31;;;;;;;;;;;;;;;;;;4934324;28;19925;-72
2023/01/30 02:01:57;;;;;;;;;;;;;;;;;;4923325;28;19977;-72
2023/01/30 02:07:08;;;;;;;;;;;;;;;;;;4933385;28;20198;-72
2023/01/30 02:09:34;;;;;;;;;;;;;;;;;;4918873;28;19914;-73
2023/01/30 02:11:59;;;;;;;;;;;;;;;;;;4933175;28;20664;-72
2023/01/30 02:14:25;;;;;;;;;;;;;;;;;;4924182;28;19914;-72
2023/01/30 02:16:51;;;;;;;;;;;;;;;;;;4933212;28;19977;-72
2023/01/30 02:19:17;;;;;;;;;;;;;;;;;;4938224;28;20020;-72
2023/01/30 02:21:43;;;;;;;;;;;;;;;;;;4936483;28;20122;-72
2023/01/30 02:24:09;;;;;;;;;;;;;;;;;;4934743;28;19914;-73
2023/01/30 02:26:35;;;;;;;;;;;;;;;;;;4940808;28;20198;-72
2023/01/30 02:29:01;;;;;;;;;;;;;;;;;;4932580;28;20293;-72
2023/01/30 02:31:27;;;;;;;;;;;;;;;;;;4935118;28;19925;-72
2023/01/30 02:33:53;;;;;;;;;;;;;;;;;;4933479;28;20323;-72
2023/01/30 02:36:20;;;;;;;;;;;;;;;;;;4926138;28;19925;-72
2023/01/30 02:38:46;;;;;;;;;;;;;;;;;;4920267;28;19914;-72
2023/01/30 02:41:12;;;;;;;;;;;;;;;;;;4916892;28;19921;-72
2023/01/30 02:43:38;;;;;;;;;;;;;;;;;;4936089;28;19914;-72
2023/01/30 02:46:04;;;;;;;;;;;;;;;;;;4935797;28;19964;-72
2023/01/30 02:48:30;;;;;;;;;;;;;;;;;;4936809;28;20665;-72
2023/01/30 02:50:56;;;;;;;;;;;;;;;;;;4917581;28;19915;-72
2023/01/30 02:53:22;;;;;;;;;;;;;;;;;;4920894;28;19922;-72
2023/01/30 02:55:48;;;;;;;;;;;;;;;;;;4929943;28;19972;-73
2023/01/30 02:58:14;;;;;;;;;;;;;;;;;;4920774;28;19918;-72
2023/01/30 03:00:40;;;;;;;;;;;;;;;;;;4917523;28;20348;-72
2023/01/30 03:03:09;;;;;;;;;;;;;;;;;;4933617;28;19921;-72
2023/01/30 03:05:35;;;;;;;;;;;;;;;;;;4919921;28;20066;-72
2023/01/30 03:08:02;;;;;;;;;;;;;;;;;;4931694;28;20367;-72
2023/01/30 03:10:28;;;;;;;;;;;;;;;;;;4920901;28;20219;-71
2023/01/30 03:12:54;;;;;;;;;;;;;;;;;;4917792;28;20361;-72
2023/01/30 03:15:20;;;;;;;;;;;;;;;;;;4919064;28;19918;-72
2023/01/30 03:17:46;;;;;;;;;;;;;;;;;;4924731;28;20037;-72
2023/01/30 03:20:13;;;;;;;;;;;;;;;;;;4916703;28;19910;-72
2023/01/30 03:22:39;;;;;;;;;;;;;;;;;;4922514;28;19953;-72
2023/01/30 03:25:05;;;;;;;;;;;;;;;;;;4932173;28;19942;-72
2023/01/30 03:27:31;;;;;;;;;;;;;;;;;;4934103;28;20999;-72
2023/01/30 03:29:57;;;;;;;;;;;;;;;;;;4934752;28;20586;-71
2023/01/30 03:32:23;;;;;;;;;;;;;;;;;;4919048;28;19909;-72
2023/01/30 03:34:49;;;;;;;;;;;;;;;;;;4931167;28;19972;-72
2023/01/30 03:37:15;;;;;;;;;;;;;;;;;;4937050;28;20475;-72
2023/01/30 03:39:41;;;;;;;;;;;;;;;;;;4918961;28;19936;-72
2023/01/30 03:42:07;;;;;;;;;;;;;;;;;;4916106;28;23309;-72
2023/01/30 03:44:32;;;;;;;;;;;;;;;;;;4922049;28;19914;-71
2023/01/30 03:46:58;;;;;;;;;;;;;;;;;;4934558;28;19937;-72
2023/01/30 03:49:24;;;;;;;;;;;;;;;;;;4917686;28;20411;-71
2023/01/30 03:51:50;;;;;;;;;;;;;;;;;;4936761;28;19993;-72
2023/01/30 03:54:16;;;;;;;;;;;;;;;;;;4935173;28;20801;-71
2023/01/30 03:56:43;;;;;;;;;;;;;;;;;;4935614;28;19919;-72
2023/01/30 03:59:09;;;;;;;;;;;;;;;;;;4933839;28;20522;-72
2023/01/30 04:01:35;;;;;;;;;;;;;;;;;;4928001;28;19922;-72
2023/01/30 04:04:01;;;;;;;;;;;;;;;;;;4921945;28;19914;-72
2023/01/30 04:06:27;;;;;;;;;;;;;;;;;;4937662;28;19930;-72
2023/01/30 04:08:53;;;;;;;;;;;;;;;;;;4917746;28;19989;-72
2023/01/30 04:11:18;;;;;;;;;;;;;;;;;;4917975;28;20028;-71
2023/01/30 04:13:45;;;;;;;;;;;;;;;;;;4935088;28;19980;-71
2023/01/30 04:16:10;;;;;;;;;;;;;;;;;;4931140;28;20501;-72
2023/01/30 04:18:36;;;;;;;;;;;;;;;;;;4936105;28;19914;-71
2023/01/30 04:21:02;;;;;;;;;;;;;;;;;;4922177;28;20323;-71
2023/01/30 04:23:28;;;;;;;;;;;;;;;;;;4933404;28;19956;-72
2023/01/30 04:25:54;;;;;;;;;;;;;;;;;;4931847;28;19941;-72
2023/01/30 04:28:20;;;;;;;;;;;;;;;;;;4933702;28;20276;-73
2023/01/30 04:30:47;;;;;;;;;;;;;;;;;;4937906;28;19922;-72
2023/01/30 04:33:13;;;;;;;;;;;;;;;;;;4920329;28;20302;-72
2023/01/30 04:35:39;;;;;;;;;;;;;;;;;;4935605;28;19926;-72
2023/01/30 04:38:05;;;;;;;;;;;;;;;;;;4931551;28;20811;-71
2023/01/30 04:40:30;;;;;;;;;;;;;;;;;;4918147;28;19914;-71
2023/01/30 04:42:56;;;;;;;;;;;;;;;;;;4932361;28;19949;-72
2023/01/30 04:45:22;;;;;;;;;;;;;;;;;;4938650;28;20340;-72
2023/01/30 04:47:48;;;;;;;;;;;;;;;;;;4935282;28;20216;-71
2023/01/30 04:50:14;;;;;;;;;;;;;;;;;;4932565;28;20432;-72
2023/01/30 04:52:40;;;;;;;;;;;;;;;;;;4915296;28;20028;-72
2023/01/30 04:55:06;;;;;;;;;;;;;;;;;;4917521;28;19914;-71
2023/01/30 04:57:32;;;;;;;;;;;;;;;;;;4918652;28;20587;-72
2023/01/30 04:59:58;;;;;;;;;;;;;;;;;;4933227;28;19976;-72
2023/01/30 05:02:24;;;;;;;;;;;;;;;;;;4936285;28;19922;-72
2023/01/30 05:04:50;;;;;;;;;;;;;;;;;;4933128;28;20008;-72
2023/01/30 05:07:16;;;;;;;;;;;;;;;;;;4920952;28;19920;-72
2023/01/30 05:09:43;;;;;;;;;;;;;;;;;;4937098;28;19957;-72
2023/01/30 05:12:09;;;;;;;;;;;;;;;;;;4928551;28;20017;-72
2023/01/30 05:14:35;;;;;;;;;;;;;;;;;;4935089;28;20250;-72
2023/01/30 05:17:01;;;;;;;;;;;;;;;;;;4933668;28;19980;-72
2023/01/30 05:19:27;;;;;;;;;;;;;;;;;;4919487;28;19914;-72
2023/01/30 05:21:53;;;;;;;;;;;;;;;;;;4914556;28;19933;-72
2023/01/30 05:24:19;;;;;;;;;;;;;;;;;;4914218;28;19977;-72
2023/01/30 05:26:45;;;;;;;;;;;;;;;;;;4942084;28;19914;-70
2023/01/30 05:29:11;;;;;;;;;;;;;;;;;;4943798;28;20151;-72
2023/01/30 05:31:37;;;;;;;;;;;;;;;;;;4947959;28;19993;-73
2023/01/30 05:34:03;;;;;;;;;;;;;;;;;;4929374;28;19925;-72
2023/01/30 05:36:29;;;;;;;;;;;;;;;;;;4950782;28;20569;-72
2023/01/30 05:38:55;;;;;;;;;;;;;;;;;;4938192;28;20002;-72
2023/01/30 05:41:21;;;;;;;;;;;;;;;;;;4935996;28;19968;-74
2023/01/30 05:43:47;;;;;;;;;;;;;;;;;;4940299;28;19914;-73
2023/01/30 05:46:13;;;;;;;;;;;;;;;;;;4917681;28;19981;-72
2023/01/30 05:48:39;;;;;;;;;;;;;;;;;;4918131;28;20188;-72
2023/01/30 05:51:05;;;;;;;;;;;;;;;;;;4913591;28;19953;-72
2023/01/30 05:53:33;;;;;;;;;;;;;;;;;;4932047;28;19922;-72
2023/01/30 05:55:59;;;;;;;;;;;;;;;;;;4929242;28;20029;-72
2023/01/30 05:58:25;;;;;;;;;;;;;;;;;;4935329;28;19914;-72
2023/01/30 06:00:51;;;;;;;;;;;;;;;;;;4932869;28;19969;-72
2023/01/30 06:03:17;;;;;;;;;;;;;;;;;;4932380;28;20299;-72
2023/01/30 06:05:43;;;;;;;;;;;;;;;;;;4936148;28;19914;-71
2023/01/30 06:08:09;;;;;;;;;;;;;;;;;;4927599;28;19914;-72
2023/01/30 06:10:34;;;;;;;;;;;;;;;;;;4917982;28;19914;-72
2023/01/30 06:13:00;;;;;;;;;;;;;;;;;;4931160;28;20068;-71
2023/01/30 06:15:27;;;;;;;;;;;;;;;;;;4919480;28;19918;-72
2023/01/30 06:17:53;;;;;;;;;;;;;;;;;;4918480;28;19915;-72
2023/01/30 06:20:19;;;;;;;;;;;;;;;;;;4938269;28;19921;-72
2023/01/30 06:22:44;;;;;;;;;;;;;;;;;;4940796;28;20434;-71
2023/01/30 06:25:11;;;;;;;;;;;;;;;;;;4933659;28;19910;-72
2023/01/30 06:27:37;;;;;;;;;;;;;;;;;;4931216;28;20377;-72
2023/01/30 06:30:03;;;;;;;;;;;;;;;;;;4930028;28;20306;-72
2023/01/30 06:32:29;;;;;;;;;;;;;;;;;;4932047;28;20024;-72
2023/01/30 06:34:54;;;;;;;;;;;;;;;;;;4915990;28;20047;-72
2023/01/30 06:37:20;;;;;;;;;;;;;;;;;;4920484;28;19918;-72
2023/01/30 06:39:47;;;;;;;;;;;;;;;;;;4934326;28;19921;-72
2023/01/30 06:42:13;;;;;;;;;;;;;;;;;;4936802;28;19918;-73
2023/01/30 06:44:39;;;;;;;;;;;;;;;;;;4934258;28;20016;-72
2023/01/30 06:47:04;;;;;;;;;;;;;;;;;;4935495;28;20221;-72
2023/01/30 06:49:30;;;;;;;;;;;;;;;;;;4918091;28;20009;-72
2023/01/30 06:51:56;;;;;;;;;;;;;;;;;;4932535;28;20334;-72
2023/01/30 06:54:22;;;;;;;;;;;;;;;;;;4917230;28;20339;-71
2023/01/30 06:56:48;;;;;;;;;;;;;;;;;;4933976;28;20392;-72
2023/01/30 06:59:14;;;;;;;;;;;;;;;;;;4918493;28;19921;-72
2023/01/30 07:01:40;;;;;;;;;;;;;;;;;;4924279;28;19914;-73
2023/01/30 07:04:06;;;;;;;;;;;;;;;;;;4933105;28;19965;-71
2023/01/30 07:06:32;;;;;;;;;;;;;;;;;;4920520;28;20001;-72
2023/01/30 07:08:58;;;;;;;;;;;;;;;;;;4915825;28;19918;-72
2023/01/30 07:11:24;;;;;;;;;;;;;;;;;;4934318;28;19915;-73
2023/01/30 07:13:50;;;;;;;;;;;;;;;;;;4931855;28;19918;-72
2023/01/30 07:16:16;;;;;;;;;;;;;;;;;;4918520;28;20242;-73
2023/01/30 07:18:42;;;;;;;;;;;;;;;;;;4915283;28;19921;-73
2023/01/30 07:21:08;;;;;;;;;;;;;;;;;;4919748;28;20520;-73
2023/01/30 07:23:35;;;;;;;;;;;;;;;;;;4920079;28;20474;-72
2023/01/30 07:26:00;;;;;;;;;;;;;;;;;;4915407;28;20361;-72
2023/01/30 07:28:26;;;;;;;;;;;;;;;;;;4933537;28;19967;-72
2023/01/30 07:30:52;;;;;;;;;;;;;;;;;;4916665;28;19918;-72
2023/01/30 07:33:19;;;;;;;;;;;;;;;;;;4930122;28;19914;-72
2023/01/30 07:35:45;;;;;;;;;;;;;;;;;;4936660;28;19973;-72
2023/01/30 07:38:11;;;;;;;;;;;;;;;;;;4934543;28;20155;-72
2023/01/30 07:40:37;;;;;;;;;;;;;;;;;;4938653;28;20349;-72
2023/01/30 07:43:03;;;;;;;;;;;;;;;;;;4919805;28;20038;-73
2023/01/30 07:45:29;;;;;;;;;;;;;;;;;;4937727;28;20224;-73
2023/01/30 07:47:55;;;;;;;;;;;;;;;;;;4934398;28;20013;-73
2023/01/30 07:50:21;;;;;;;;;;;;;;;;;;4918866;28;20683;-71
2023/01/30 07:52:47;;;;;;;;;;;;;;;;;;4918748;28;19926;-74
2023/01/30 07:55:13;;;;;;;;;;;;;;;;;;4920861;28;20457;-71
2023/01/30 07:57:39;;;;;;;;;;;;;;;;;;4925822;28;20131;-72
2023/01/30 08:00:06;;;;;;;;;;;;;;;;;;4931758;28;19933;-74
2023/01/30 08:02:32;;;;;;;;;;;;;;;;;;4937460;28;20044;-72
2023/01/30 08:04:58;;;;;;;;;;;;;;;;;;4933096;28;20339;-72
2023/01/30 08:07:24;;;;;;;;;;;;;;;;;;4933793;28;20355;-72
2023/01/30 08:09:50;;;;;;;;;;;;;;;;;;4915085;28;19945;-72
2023/01/30 08:12:16;;;;;;;;;;;;;;;;;;4914949;28;19920;-71
2023/01/30 08:14:42;;;;;;;;;;;;;;;;;;4918151;28;19913;-72
2023/01/30 08:17:08;;;;;;;;;;;;;;;;;;4928583;28;21115;-74
2023/01/30 08:19:34;;;;;;;;;;;;;;;;;;4935349;28;20494;-72
2023/01/30 08:22:00;;;;;;;;;;;;;;;;;;4913941;28;20041;-73
2023/01/30 08:24:26;;;;;;;;;;;;;;;;;;4920401;28;19914;-73
2023/01/30 08:26:52;;;;;;;;;;;;;;;;;;4934081;28;19949;-73
2023/01/30 08:29:18;;;;;;;;;;;;;;;;;;4917726;28;19910;-73
2023/01/30 08:31:44;;;;;;;;;;;;;;;;;;4934411;28;19921;-73
2023/01/30 08:34:10;;;;;;;;;;;;;;;;;;4915806;28;20448;-73
2023/01/30 08:36:36;;;;;;;;;;;;;;;;;;4934658;28;19925;-73
2023/01/30 08:39:02;;;;;;;;;;;;;;;;;;4915115;28;19914;-73
2023/01/30 08:41:28;;;;;;;;;;;;;;;;;;4917217;28;19910;-73
2023/01/30 08:43:54;;;;;;;;;;;;;;;;;;4931995;28;20033;-73
2023/01/30 08:46:20;;;;;;;;;;;;;;;;;;4932761;28;19925;-73
2023/01/30 08:48:46;;;;;;;;;;;;;;;;;;4934048;28;19989;-73
2023/01/30 08:51:12;;;;;;;;;;;;;;;;;;4930805;28;20423;-73
2023/01/30 08:53:38;;;;;;;;;;;;;;;;;;4933932;28;19929;-73
2023/01/30 08:56:04;;;;;;;;;;;;;;;;;;4930124;28;19926;-73
2023/01/30 08:58:30;;;;;;;;;;;;;;;;;;4929412;28;20251;-73
2023/01/30 09:00:56;;;;;;;;;;;;;;;;;;4930252;28;20664;-73
2023/01/30 09:03:22;;;;;;;;;;;;;;;;;;4934208;28;19914;-72
2023/01/30 09:05:48;;;;;;;;;;;;;;;;;;4930592;28;20008;-72
2023/01/30 09:08:14;;;;;;;;;;;;;;;;;;4936995;28;19996;-72
2023/01/30 09:10:40;;;;;;;;;;;;;;;;;;4931637;28;20203;-72
2023/01/30 09:13:06;;;;;;;;;;;;;;;;;;4929382;28;19960;-73
2023/01/30 09:15:32;;;;;;;;;;;;;;;;;;4920965;28;19922;-72
2023/01/30 09:18:00;;;;;;;;;;;;;;;;;;4929105;28;20601;-73
2023/01/30 09:20:26;;;;;;;;;;;;;;;;;;4910119;28;19921;-73
2023/01/30 09:22:52;;;;;;;;;;;;;;;;;;4930199;28;19918;-73
2023/01/30 09:25:18;;;;;;;;;;;;;;;;;;4915689;28;19992;-73
2023/01/30 09:27:44;;;;;;;;;;;;;;;;;;4920834;28;20324;-73
2023/01/30 09:30:10;;;;;;;;;;;;;;;;;;4928867;28;20215;-72
2023/01/30 09:32:36;;;;;;;;;;;;;;;;;;4916253;28;20458;-73
2023/01/30 09:35:02;;;;;;;;;;;;;;;;;;4914928;28;19920;-75
2023/01/30 09:37:28;;;;;;;;;;;;;;;;;;4930980;28;19918;-73
2023/01/30 09:39:54;;;;;;;;;;;;;;;;;;4913121;28;19914;-73
2023/01/30 09:42:20;;;;;;;;;;;;;;;;;;4920264;28;20278;-73
2023/01/30 09:44:46;;;;;;;;;;;;;;;;;;4916423;28;19914;-74
2023/01/30 09:47:12;;;;;;;;;;;;;;;;;;4913154;28;19918;-73
2023/01/30 09:49:38;;;;;;;;;;;;;;;;;;4932768;28;20922;-72
2023/01/30 09:52:04;;;;;;;;;;;;;;;;;;4935789;28;20369;-73
2023/01/30 09:54:30;;;;;;;;;;;;;;;;;;4899006;29;19937;-73
2023/01/30 09:56:56;;;;;;;;;;;;;;;;;;4896388;28;20261;-73
2023/01/30 09:59:22;;;;;;;;;;;;;;;;;;4914600;28;20301;-73
2023/01/30 10:01:48;;;;;;;;;;;;;;;;;;4891216;28;19939;-73
2023/01/30 10:04:14;;;;;;;;;;;;;;;;;;4897711;29;19937;-73
2023/01/30 10:06:40;;;;;;;;;;;;;;;;;;4914598;28;20463;-72
2023/01/30 10:09:06;;;;;;;;;;;;;;;;;;4911480;28;19922;-73
2023/01/30 10:11:32;;;;;;;;;;;;;;;;;;4902966;28;20040;-74
2023/01/30 10:13:58;;;;;;;;;;;;;;;;;;4913750;28;19914;-74
2023/01/30 10:16:24;;;;;;;;;;;;;;;;;;4919895;28;19919;-73
2023/01/30 10:18:50;;;;;;;;;;;;;;;;;;4919612;28;19918;-72
2023/01/30 10:21:16;;;;;;;;;;;;;;;;;;4912680;28;20009;-74
2023/01/30 10:23:43;;;;;;;;;;;;;;;;;;4915839;28;20353;-74
2023/01/30 10:26:09;;;;;;;;;;;;;;;;;;4900342;28;19993;-74
2023/01/30 10:28:35;;;;;;;;;;;;;;;;;;4917836;28;20077;-72
2023/01/30 10:31:01;;;;;;;;;;;;;;;;;;4896575;28;20056;-75
2023/01/30 10:33:27;;;;;;;;;;;;;;;;;;4901831;29;20054;-75
2023/01/30 10:35:53;;;;;;;;;;;;;;;;;;4895698;28;19919;-74
2023/01/30 10:38:19;;;;;;;;;;;;;;;;;;4915726;28;19918;-75
2023/01/30 10:40:45;;;;;;;;;;;;;;;;;;4915996;28;19944;-75
2023/01/30 10:43:11;;;;;;;;;;;;;;;;;;4892307;28;20448;-75
2023/01/30 10:45:37;;;;;;;;;;;;;;;;;;4910278;28;19922;-75
2023/01/30 10:48:03;;;;;;;;;;;;;;;;;;4915765;28;20148;-74
2023/01/30 10:50:29;;;;;;;;;;;;;;;;;;4914797;28;20499;-74
2023/01/30 10:52:56;;;;;;;;;;;;;;;;;;4919705;28;20277;-73
2023/01/30 10:55:22;;;;;;;;;;;;;;;;;;4935657;28;20212;-73
2023/01/30 10:57:48;;;;;;;;;;;;;;;;;;4918300;28;20044;-74
2023/01/30 11:00:14;;;;;;;;;;;;;;;;;;4921069;28;19961;-74
2023/01/30 11:02:40;;;;;;;;;;;;;;;;;;4935926;28;20048;-76
2023/01/30 11:05:06;;;;;;;;;;;;;;;;;;4934814;28;20373;-74
2023/01/30 11:07:32;;;;;;;;;;;;;;;;;;4918925;28;19919;-74
2023/01/30 11:09:58;;;;;;;;;;;;;;;;;;4934056;28;20012;-74
2023/01/30 11:12:23;;;;;;;;;;;;;;;;;;4937017;28;20502;-74
2023/01/30 11:14:50;;;;;;;;;;;;;;;;;;4932014;28;19945;-74
2023/01/30 11:17:17;;;;;;;;;;;;;;;;;;4934043;28;19922;-76
2023/01/30 11:19:43;;;;;;;;;;;;;;;;;;4917698;28;20364;-75
2023/01/30 11:22:09;;;;;;;;;;;;;;;;;;4932138;28;21048;-76
2023/01/30 11:24:35;;;;;;;;;;;;;;;;;;4933755;28;19944;-76
2023/01/30 11:27:01;;;;;;;;;;;;;;;;;;4913490;28;20365;-73
2023/01/30 11:29:27;;;;;;;;;;;;;;;;;;4933969;28;20222;-75
2023/01/30 11:31:53;;;;;;;;;;;;;;;;;;4911569;28;19958;-76
2023/01/30 11:34:19;;;;;;;;;;;;;;;;;;4921068;28;19915;-75
2023/01/30 11:36:46;;;;;;;;;;;;;;;;;;4937472;28;20392;-75
2023/01/30 11:39:12;;;;;;;;;;;;;;;;;;4932122;28;20065;-75
2023/01/30 11:41:38;;;;;;;;;;;;;;;;;;4918920;28;20837;-75
2023/01/30 11:44:04;;;;;;;;;;;;;;;;;;4932376;28;19926;-74
2023/01/30 11:46:30;;;;;;;;;;;;;;;;;;4933570;28;19910;-75
2023/01/30 11:48:56;;;;;;;;;;;;;;;;;;4933829;28;19921;-75
2023/01/30 11:51:22;;;;;;;;;;;;;;;;;;4934665;28;20269;-75
2023/01/30 11:53:48;;;;;;;;;;;;;;;;;;4933020;28;19930;-75
2023/01/30 11:56:15;;;;;;;;;;;;;;;;;;4935765;28;19924;-75
2023/01/30 11:58:41;;;;;;;;;;;;;;;;;;4920441;28;19914;-76
2023/01/30 12:01:07;;;;;;;;;;;;;;;;;;4930766;28;20012;-76
2023/01/30 12:03:33;;;;;;;;;;;;;;;;;;4926422;28;19984;-77
2023/01/30 12:05:59;;;;;;;;;;;;;;;;;;4933083;28;20203;-75
2023/01/30 12:08:25;;;;;;;;;;;;;;;;;;4934003;28;19949;-76
2023/01/30 12:10:53;;;;;;;;;;;;;;;;;;4931379;28;20489;-76
2023/01/30 12:13:19;;;;;;;;;;;;;;;;;;4933895;28;19917;-75
2023/01/30 12:15:47;;;;;;;;;;;;;;;;;;4936043;28;19929;-76
2023/01/30 12:18:13;;;;;;;;;;;;;;;;;;4936764;28;19918;-75
2023/01/30 12:20:39;;;;;;;;;;;;;;;;;;4934259;28;20399;-76
2023/01/30 12:23:05;;;;;;;;;;;;;;;;;;4912409;28;19914;-76
2023/01/30 12:25:32;;;;;;;;;;;;;;;;;;4935741;28;19922;-76
2023/01/30 12:27:58;;;;;;;;;;;;;;;;;;4931094;28;20409;-76
2023/01/30 12:30:24;;;;;;;;;;;;;;;;;;4938484;28;19914;-72
2023/01/30 12:32:50;;;;;;;;;;;;;;;;;;4930886;28;19914;-73
2023/01/30 12:35:16;;;;;;;;;;;;;;;;;;4937271;28;20257;-77
2023/01/30 12:37:42;;;;;;;;;;;;;;;;;;4934854;28;19918;-77
2023/01/30 12:40:08;;;;;;;;;;;;;;;;;;4912451;28;20593;-77
2023/01/30 12:42:34;;;;;;;;;;;;;;;;;;4935573;28;19914;-76
2023/01/30 12:45:00;;;;;;;;;;;;;;;;;;4934321;28;19920;-79
2023/01/30 12:47:26;;;;;;;;;;;;;;;;;;4920926;28;20395;-76
2023/01/30 12:49:52;;;;;;;;;;;;;;;;;;4932069;28;19969;-77
2023/01/30 12:52:18;;;;;;;;;;;;;;;;;;4921320;28;20369;-77
2023/01/30 12:54:44;;;;;;;;;;;;;;;;;;4919406;28;19930;-76
2023/01/30 12:57:10;;;;;;;;;;;;;;;;;;4915219;28;19922;-77
2023/01/30 12:59:36;;;;;;;;;;;;;;;;;;4937657;28;19914;-78
2023/01/30 13:02:02;;;;;;;;;;;;;;;;;;4934497;28;20443;-77
2023/01/30 13:04:28;;;;;;;;;;;;;;;;;;4918529;28;20000;-78
2023/01/30 13:06:54;;;;;;;;;;;;;;;;;;4930041;28;19956;-78
2023/01/30 13:09:20;;;;;;;;;;;;;;;;;;4916558;28;19914;-75
2023/01/30 13:11:46;;;;;;;;;;;;;;;;;;4935656;28;20036;-74
2023/01/30 13:14:12;;;;;;;;;;;;;;;;;;4914551;28;20406;-75
2023/01/30 13:16:38;;;;;;;;;;;;;;;;;;4937553;28;20506;-74
2023/01/30 13:19:04;;;;;;;;;;;;;;;;;;4929147;28;20016;-74
2023/01/30 13:21:30;;;;;;;;;;;;;;;;;;4934618;28;20232;-74
2023/01/30 13:23:56;;;;;;;;;;;;;;;;;;4917958;28;20234;-73
2023/01/30 13:26:22;;;;;;;;;;;;;;;;;;4931723;28;19917;-74
2023/01/30 13:28:48;;;;;;;;;;;;;;;;;;4917889;28;20443;-75
2023/01/30 13:31:13;;;;;;;;;;;;;;;;;;4934721;28;19918;-74
2023/01/30 13:33:40;;;;;;;;;;;;;;;;;;4933176;28;19934;-74
2023/01/30 13:36:05;;;;;;;;;;;;;;;;;;4914149;28;19925;-73
2023/01/30 13:38:31;;;;;;;;;;;;;;;;;;4915352;28;19913;-74
2023/01/30 13:40:57;;;;;;;;;;;;;;;;;;4930934;28;19914;-74
2023/01/30 13:43:23;;;;;;;;;;;;;;;;;;4920187;28;19914;-74
2023/01/30 13:45:49;;;;;;;;;;;;;;;;;;4937390;28;19956;-74
2023/01/30 13:48:15;;;;;;;;;;;;;;;;;;4939000;28;19918;-75
2023/01/30 13:50:41;;;;;;;;;;;;;;;;;;4922440;28;19945;-75
2023/01/30 13:53:07;;;;;;;;;;;;;;;;;;4919439;28;20190;-75
2023/01/30 13:55:33;;;;;;;;;;;;;;;;;;4939173;28;20016;-75
2023/01/30 13:57:59;;;;;;;;;;;;;;;;;;4936884;28;19914;-75
2023/01/30 14:00:25;;;;;;;;;;;;;;;;;;4942810;28;20693;-75
2023/01/30 14:02:51;;;;;;;;;;;;;;;;;;4918729;28;19914;-75
2023/01/30 14:05:17;;;;;;;;;;;;;;;;;;4935480;28;19922;-76
2023/01/30 14:07:44;;;;;;;;;;;;;;;;;;4938964;28;19918;-75
2023/01/30 14:10:10;;;;;;;;;;;;;;;;;;4915534;28;19957;-77
2023/01/30 14:12:36;;;;;;;;;;;;;;;;;;4935211;28;20341;-74
2023/01/30 14:15:02;;;;;;;;;;;;;;;;;;4937652;28;20379;-75
2023/01/30 14:17:28;;;;;;;;;;;;;;;;;;4936295;28;19919;-75
2023/01/30 14:19:54;;;;;;;;;;;;;;;;;;4914783;28;20522;-75
2023/01/30 14:22:20;;;;;;;;;;;;;;;;;;4938685;28;19914;-76
2023/01/30 14:24:46;;;;;;;;;;;;;;;;;;4936379;28;19973;-76
2023/01/30 14:27:12;;;;;;;;;;;;;;;;;;4920953;28;20287;-74
2023/01/30 14:29:41;;;;;;;;;;;;;;;;;;4928385;28;19922;-76
2023/01/30 14:32:07;;;;;;;;;;;;;;;;;;4919229;28;19921;-75
2023/01/30 14:34:33;;;;;;;;;;;;;;;;;;4937981;28;19914;-76
2023/01/30 14:36:59;;;;;;;;;;;;;;;;;;4933636;28;19922;-74
2023/01/30 14:39:24;;;;;;;;;;;;;;;;;;4922030;28;20356;-74
2023/01/30 14:41:50;;;;;;;;;;;;;;;;;;4936954;28;19918;-76
2023/01/30 14:44:16;;;;;;;;;;;;;;;;;;4933209;28;20365;-76
2023/01/30 14:46:42;;;;;;;;;;;;;;;;;;4939350;28;19910;-76
2023/01/30 14:49:08;;;;;;;;;;;;;;;;;;4916999;28;20574;-74
2023/01/30 14:51:35;;;;;;;;;;;;;;;;;;4938772;28;19953;-74
2023/01/30 14:54:01;;;;;;;;;;;;;;;;;;4935371;28;19930;-74
2023/01/30 14:56:27;;;;;;;;;;;;;;;;;;4950489;28;19918;-75
2023/01/30 14:58:53;;;;;;;;;;;;;;;;;;4942520;28;20027;-73
2023/01/30 15:01:19;;;;;;;;;;;;;;;;;;4964035;28;20222;-74
2023/01/30 15:03:46;;;;;;;;;;;;;;;;;;4941481;28;19919;-74
2023/01/30 15:06:12;;;;;;;;;;;;;;;;;;4961868;28;19917;-74
2023/01/30 15:08:38;;;;;;;;;;;;;;;;;;4947895;28;20423;-73
2023/01/30 15:11:04;;;;;;;;;;;;;;;;;;4943334;28;19920;-73
2023/01/30 15:13:30;;;;;;;;;;;;;;;;;;4928201;28;20448;-74
2023/01/30 15:15:56;;;;;;;;;;;;;;;;;;4941498;28;19945;-73
2023/01/30 15:18:22;;;;;;;;;;;;;;;;;;4925730;28;19921;-74
2023/01/30 15:20:48;;;;;;;;;;;;;;;;;;4938876;28;20701;-74
2023/01/30 15:23:14;;;;;;;;;;;;;;;;;;4934701;28;20005;-73
2023/01/30 15:25:40;;;;;;;;;;;;;;;;;;4936764;28;20462;-73
2023/01/30 15:28:06;;;;;;;;;;;;;;;;;;4918440;28;20461;-76
2023/01/30 15:30:33;;;;;;;;;;;;;;;;;;4916564;28;20071;-74
2023/01/30 15:33:00;;;;;;;;;;;;;;;;;;4934745;28;19921;-73
2023/01/30 15:35:26;;;;;;;;;;;;;;;;;;4925822;28;20064;-73
2023/01/30 15:37:51;;;;;;;;;;;;;;;;;;4917699;28;19926;-73
2023/01/30 15:40:17;;;;;;;;;;;;;;;;;;4937906;28;20238;-73
2023/01/30 15:42:43;;;;;;;;;;;;;;;;;;4920539;28;19959;-73
2023/01/30 15:45:09;;;;;;;;;;;;;;;;;;4921506;28;20155;-73
2023/01/30 15:47:35;;;;;;;;;;;;;;;;;;4920134;28;19992;-73
2023/01/30 15:50:02;;;;;;;;;;;;;;;;;;4921844;28;19918;-73
2023/01/30 15:52:28;;;;;;;;;;;;;;;;;;4937299;28;20823;-74
2023/01/30 15:54:54;;;;;;;;;;;;;;;;;;4922592;28;19921;-75
2023/01/30 15:57:19;;;;;;;;;;;;;;;;;;4944777;28;20250;-72
2023/01/30 15:59:45;;;;;;;;;;;;;;;;;;4939836;28;19918;-74
2023/01/30 16:02:11;;;;;;;;;;;;;;;;;;4934879;28;20650;-73
2023/01/30 16:04:37;;;;;;;;;;;;;;;;;;4923472;28;19913;-73
2023/01/30 16:07:03;;;;;;;;;;;;;;;;;;4932740;28;19914;-74
2023/01/30 16:09:29;;;;;;;;;;;;;;;;;;4919349;28;19917;-73
2023/01/30 16:11:55;;;;;;;;;;;;;;;;;;4917873;28;19914;-73
2023/01/30 16:14:21;;;;;;;;;;;;;;;;;;4936726;28;19910;-73
2023/01/30 16:16:47;;;;;;;;;;;;;;;;;;4919919;28;20405;-74
2023/01/30 16:19:14;;;;;;;;;;;;;;;;;;4936079;28;19941;-74
2023/01/30 16:21:40;;;;;;;;;;;;;;;;;;4935744;28;19914;-72
2023/01/30 16:24:06;;;;;;;;;;;;;;;;;;4932960;28;20274;-73
2023/01/30 16:26:32;;;;;;;;;;;;;;;;;;4918927;28;19924;-73
2023/01/30 16:28:58;;;;;;;;;;;;;;;;;;4913233;28;19913;-72
2023/01/30 16:31:26;;;;;;;;;;;;;;;;;;4934988;28;19921;-72
2023/01/30 16:33:52;;;;;;;;;;;;;;;;;;4916357;28;19972;-72
2023/01/30 16:36:18;;;;;;;;;;;;;;;;;;4934115;28;20471;-72
2023/01/30 16:38:44;;;;;;;;;;;;;;;;;;4934349;28;19914;-72
2023/01/30 16:41:10;;;;;;;;;;;;;;;;;;4931362;28;19914;-72
2023/01/30 16:43:43;;;;;;;;;;;;;;;;;;4934448;28;20344;-74
2023/01/30 16:46:09;;;;;;;;;;;;;;;;;;4932861;28;22264;-72
2023/01/30 16:48:35;;;;;;;;;;;;;;;;;;4920018;28;20218;-72